Terminal Aerodrome Forecast
Issued by NWS New Orleans/Baton Rouge, LA

Home | Current Version | Previous Version | Text Only | Print | Product List | Glossary On
Versions: 1 2 3 4 5 6 7 8 9 10 11 12 13 14 15 16 17 18 19 20 21 22 23 24 25 26 27 28 29 30
000
FTUS44 KLIX 251736
TAFNEW
TAF
KNEW 251736Z 2518/2618 03008KT P6SM VCTS SCT030CB
     FM260000 04006KT P6SM BKN090
     FM260500 05008KT P6SM SCT045
     FM260700 05008KT P6SM BKN035=

USA.gov is the U.S. government's official web portal to all federal, state and local government web resources and services.